Time;durP1;ratioP1;P1;durP2;ratioP2;P2;SDS_P1;SDS_P2;PMS_P1;PMS_P2;Temp;Humidity;BMP_temperature;BMP_pressure;BME280_temperature;BME280_humidity;BME280_pressure;Samples;Min_cycle;Max_cycle;Signal;HPM_P1;HPM_P2
2021/11/01 00:00:14;;;;;;;3.92;1.20;;;;;;;21.11;49.82;99765.31;5073728;28;20032;-61
2021/11/01 00:02:41;;;;;;;4.55;1.40;;;;;;;21.10;49.86;99763.69;5074040;28;20031;-61
2021/11/01 00:05:07;;;;;;;4.72;1.35;;;;;;;21.08;49.80;99770.94;5072744;28;20028;-61
2021/11/01 00:07:32;;;;;;;4.57;1.20;;;;;;;21.06;49.72;99775.59;5074101;28;20028;-61
2021/11/01 00:09:58;;;;;;;4.63;1.20;;;;;;;21.04;49.65;99772.31;5073684;28;20024;-61
2021/11/01 00:12:44;;;;;;;4.13;1.23;;;;;;;21.01;49.54;99773.47;5073137;28;20025;-61
2021/11/01 00:15:10;;;;;;;3.58;1.10;;;;;;;20.99;49.77;99770.97;5059544;28;20043;-61
2021/11/01 00:17:37;;;;;;;3.67;1.20;;;;;;;20.97;49.49;99764.22;5073924;28;20028;-61
2021/11/01 00:20:05;;;;;;;4.28;1.27;;;;;;;20.96;49.60;99770.50;5072601;28;20392;-61
2021/11/01 00:22:32;;;;;;;4.03;1.25;;;;;;;20.95;49.66;99764.38;5073641;28;20050;-61
2021/11/01 00:24:57;;;;;;;3.47;1.20;;;;;;;20.94;49.58;99768.03;5073325;28;20028;-61
2021/11/01 00:27:22;;;;;;;4.20;1.35;;;;;;;20.93;49.46;99761.06;5072757;28;20112;-61
2021/11/01 00:29:48;;;;;;;3.23;0.90;;;;;;;20.91;49.62;99763.06;5072708;28;20040;-61
2021/11/01 00:32:13;;;;;;;5.03;1.25;;;;;;;20.91;49.28;99765.72;5073499;28;20302;-61
2021/11/01 00:34:41;;;;;;;4.20;1.10;;;;;;;20.90;49.44;99769.34;5072727;28;20472;-61
2021/11/01 00:37:06;;;;;;;4.32;1.30;;;;;;;20.88;49.28;99768.69;5073126;28;20372;-61
2021/11/01 00:39:31;;;;;;;4.97;1.23;;;;;;;20.87;49.44;99764.41;5072558;28;20036;-60
2021/11/01 00:41:56;;;;;;;3.42;1.20;;;;;;;20.84;49.34;99762.91;5073052;28;20037;-60
2021/11/01 00:44:22;;;;;;;2.58;1.00;;;;;;;20.84;49.39;99767.41;5073118;28;20094;-61
2021/11/01 00:46:47;;;;;;;5.15;1.40;;;;;;;20.82;49.43;99766.72;5072554;28;20040;-60
2021/11/01 00:49:13;;;;;;;3.95;1.33;;;;;;;20.81;49.11;99763.25;5072875;28;20032;-61
2021/11/01 00:51:43;;;;;;;4.25;1.20;;;;;;;20.80;49.21;99755.47;5073126;28;20058;-61
2021/11/01 00:54:12;;;;;;;2.85;1.00;;;;;;;20.77;49.43;99756.63;5071734;28;20141;-61
2021/11/01 00:56:38;;;;;;;3.75;1.33;;;;;;;20.75;49.33;99753.31;5072950;28;20466;-61
2021/11/01 00:59:04;;;;;;;4.65;1.13;;;;;;;20.75;49.24;99757.81;5072420;28;20107;-61
2021/11/01 01:01:32;;;;;;;4.18;1.30;;;;;;;20.73;49.27;99755.31;5072087;28;20028;-61
2021/11/01 01:03:59;;;;;;;3.80;1.00;;;;;;;20.73;49.19;99751.81;5072366;28;20166;-61
2021/11/01 01:06:24;;;;;;;3.40;1.08;;;;;;;20.72;49.22;99747.56;5072888;28;20036;-60
2021/11/01 01:08:49;;;;;;;4.35;1.13;;;;;;;20.70;49.32;99731.03;5071432;28;20024;-61
2021/11/01 01:11:15;;;;;;;4.27;1.00;;;;;;;20.67;49.17;99740.09;5072204;28;20024;-61
2021/11/01 01:13:41;;;;;;;3.60;1.10;;;;;;;20.68;49.20;99741.78;5072434;28;20276;-61
2021/11/01 01:16:31;;;;;;;3.83;1.13;;;;;;;20.67;49.15;99731.34;5071712;28;20032;-61
2021/11/01 01:18:59;;;;;;;4.15;1.25;;;;;;;20.67;49.07;99732.16;5072089;28;20033;-60
2021/11/01 01:24:11;;;;;;;4.10;1.10;;;;;;;20.63;48.87;99728.16;5072405;28;20043;-61
2021/11/01 01:26:39;;;;;;;4.95;1.67;;;;;;;20.61;49.05;99723.03;5072634;28;20021;-62
2021/11/01 01:29:07;;;;;;;3.80;1.00;;;;;;;20.61;49.13;99730.16;5071524;28;20050;-61
2021/11/01 01:31:32;;;;;;;3.42;1.10;;;;;;;20.59;48.82;99737.44;5072404;28;20470;-60
2021/11/01 01:33:59;;;;;;;4.65;1.00;;;;;;;20.57;48.96;99742.91;5072125;28;20025;-60
2021/11/01 01:36:24;;;;;;;3.55;1.00;;;;;;;20.56;49.00;99735.94;5071588;28;20108;-60
2021/11/01 01:38:50;;;;;;;3.58;1.08;;;;;;;20.56;48.83;99733.31;5072251;28;20115;-60
2021/11/01 01:41:22;;;;;;;3.85;1.15;;;;;;;20.54;48.88;99732.66;5072061;28;20029;-61
2021/11/01 01:43:53;;;;;;;3.22;0.90;;;;;;;20.51;49.01;99727.69;5071552;28;20432;-60
2021/11/01 01:46:26;;;;;;;4.07;1.10;;;;;;;20.51;48.87;99730.34;5071830;28;20472;-61
2021/11/01 01:48:53;;;;;;;4.40;1.13;;;;;;;20.49;48.87;99721.75;5072189;28;20016;-61
2021/11/01 01:51:24;;;;;;;2.63;0.98;;;;;;;20.47;49.14;99719.28;5071027;28;20033;-61
2021/11/01 01:53:50;;;;;;;3.70;1.30;;;;;;;20.47;48.87;99708.69;5072137;28;20048;-61
2021/11/01 01:56:19;;;;;;;2.95;0.75;;;;;;;20.46;49.08;99708.84;5072053;28;20028;-60
2021/11/01 01:58:49;;;;;;;3.80;0.98;;;;;;;20.44;48.83;99703.72;5071561;28;20024;-61
2021/11/01 02:01:15;;;;;;;3.28;1.42;;;;;;;20.44;48.89;99692.28;5071860;28;20084;-61
2021/11/01 02:03:48;;;;;;;3.53;1.00;;;;;;;20.42;48.92;99694.28;5072281;28;20498;-61
2021/11/01 02:06:47;;;;;;;3.35;1.10;;;;;;;20.41;48.93;99700.56;5071924;28;20127;-61
2021/11/01 02:09:21;;;;;;;3.17;1.00;;;;;;;20.40;48.80;99689.16;5065032;28;20033;-61
2021/11/01 02:12:02;;;;;;;3.25;0.95;;;;;;;20.40;48.93;99693.63;5070696;28;20082;-61
2021/11/01 02:14:38;;;;;;;3.75;1.02;;;;;;;20.39;48.87;99689.31;5072155;28;20032;-60
2021/11/01 02:17:03;;;;;;;3.58;1.08;;;;;;;20.38;48.80;99693.81;5071908;28;20082;-61
2021/11/01 02:19:39;;;;;;;5.50;1.10;;;;;;;20.36;48.96;99684.38;5071724;28;20036;-60
2021/11/01 02:22:10;;;;;;;2.97;0.82;;;;;;;20.36;48.79;99692.31;5075351;28;20062;-61
2021/11/01 02:24:35;;;;;;;3.78;0.98;;;;;;;20.34;49.01;99687.19;5075903;28;20025;-61
2021/11/01 02:27:22;;;;;;;3.93;1.00;;;;;;;20.33;48.59;99685.53;5075019;28;20029;-60
2021/11/01 02:29:48;;;;;;;5.13;1.08;;;;;;;20.34;48.68;99681.06;5062526;28;20039;-60
2021/11/01 02:32:14;;;;;;;2.85;0.95;;;;;;;20.34;48.65;99678.44;5074736;28;20107;-60
2021/11/01 02:34:41;;;;;;;3.50;1.05;;;;;;;20.32;48.72;99677.78;5075586;28;20063;-60
2021/11/01 02:37:08;;;;;;;2.85;0.90;;;;;;;20.32;48.94;99675.13;5075182;28;20079;-60
2021/11/01 02:39:52;;;;;;;3.05;0.88;;;;;;;20.30;48.73;99685.88;5074873;28;20036;-62
2021/11/01 02:42:19;;;;;;;2.33;0.73;;;;;;;20.28;48.72;99693.97;5075195;28;20025;-61
2021/11/01 02:45:00;;;;;;;3.67;1.00;;;;;;;20.28;48.83;99693.13;5075524;28;20266;-61
2021/11/01 02:47:28;;;;;;;4.93;1.35;;;;;;;20.25;48.62;99691.66;5074769;28;20037;-61
2021/11/01 02:49:55;;;;;;;4.22;0.93;;;;;;;20.26;48.69;99697.78;5075690;28;20037;-61
2021/11/01 02:52:21;;;;;;;3.55;1.13;;;;;;;20.26;48.56;99705.72;5075177;28;20460;-62
2021/11/01 02:54:48;;;;;;;4.88;0.98;;;;;;;20.26;48.60;99703.06;5074458;28;20041;-61
2021/11/01 02:57:14;;;;;;;3.00;1.13;;;;;;;20.23;48.50;99693.63;5074956;28;20093;-62
2021/11/01 02:59:41;;;;;;;2.70;0.85;;;;;;;20.23;48.68;99684.88;5075246;28;20107;-61
2021/11/01 03:02:07;;;;;;;2.95;0.85;;;;;;;20.21;48.51;99679.75;5074221;28;20039;-61
2021/11/01 03:04:32;;;;;;;3.83;1.05;;;;;;;20.20;48.53;99683.41;5075245;28;20017;-60
2021/11/01 03:06:59;;;;;;;2.60;0.90;;;;;;;20.19;48.70;99684.38;5074865;28;20056;-60
2021/11/01 03:09:28;;;;;;;3.30;1.02;;;;;;;20.20;48.66;99679.91;5074415;28;20104;-61
2021/11/01 03:11:54;;;;;;;3.22;0.90;;;;;;;20.19;48.47;99684.38;5075141;28;20033;-61
2021/11/01 03:14:27;;;;;;;3.20;0.90;;;;;;;20.18;48.65;99676.63;5073885;28;20028;-61
2021/11/01 03:17:01;;;;;;;3.80;0.90;;;;;;;20.17;48.68;99672.31;5074654;28;20036;-61
2021/11/01 03:19:29;;;;;;;3.15;0.80;;;;;;;20.17;48.65;99674.97;5075035;28;20039;-61
2021/11/01 03:21:58;;;;;;;2.00;0.80;;;;;;;20.16;48.67;99675.97;5074030;28;20071;-60
2021/11/01 03:24:28;;;;;;;2.42;0.70;;;;;;;20.16;48.50;99678.63;5074889;28;20074;-60
2021/11/01 03:26:54;;;;;;;2.97;0.90;;;;;;;20.15;48.43;99685.69;5074726;28;20028;-60
2021/11/01 03:29:22;;;;;;;3.65;1.00;;;;;;;20.13;48.38;99684.22;5073962;28;20078;-60
2021/11/01 03:31:48;;;;;;;4.15;1.00;;;;;;;20.13;48.47;99677.13;5074471;28;20036;-61
2021/11/01 03:34:18;;;;;;;4.53;1.00;;;;;;;20.14;48.30;99680.56;5074169;28;20372;-61
2021/11/01 03:36:44;;;;;;;3.15;1.08;;;;;;;20.13;48.68;99678.94;5074039;28;20077;-61
2021/11/01 03:39:13;;;;;;;3.60;1.00;;;;;;;20.12;48.41;99686.03;5074195;28;20040;-60
2021/11/01 03:41:43;;;;;;;3.95;0.90;;;;;;;20.11;48.56;99684.41;5074524;28;20032;-61
2021/11/01 03:44:16;;;;;;;2.78;1.00;;;;;;;20.09;48.36;99687.22;5073577;28;20040;-60
2021/11/01 03:46:49;;;;;;;3.72;0.90;;;;;;;20.10;48.64;99686.19;5074398;28;20036;-60
2021/11/01 03:49:14;;;;;;;4.68;1.17;;;;;;;20.09;48.69;99687.22;5074189;28;20073;-61
2021/11/01 03:51:50;;;;;;;2.88;0.93;;;;;;;20.07;48.61;99686.53;5073551;28;20099;-60
2021/11/01 03:54:18;;;;;;;3.45;0.88;;;;;;;20.08;48.32;99688.19;5073706;28;20040;-61
2021/11/01 03:56:45;;;;;;;4.85;1.10;;;;;;;20.08;48.39;99674.97;5073623;28;20430;-61
2021/11/01 03:59:11;;;;;;;3.22;0.95;;;;;;;20.07;48.53;99673.31;5073925;28;20028;-61
2021/11/01 04:01:42;;;;;;;4.07;1.00;;;;;;;20.05;48.35;99675.28;5074137;28;20059;-61
2021/11/01 04:04:09;;;;;;;4.18;1.02;;;;;;;20.06;48.19;99673.47;5073001;28;20044;-61
2021/11/01 04:06:35;;;;;;;2.83;0.88;;;;;;;20.05;48.29;99677.13;5073941;28;20029;-61
2021/11/01 04:09:03;;;;;;;2.88;0.90;;;;;;;20.04;48.61;99689.50;5073783;28;20104;-62
2021/11/01 04:11:29;;;;;;;2.60;0.90;;;;;;;20.03;48.50;99697.63;5073488;28;20056;-61
2021/11/01 04:14:01;;;;;;;3.10;1.08;;;;;;;20.03;48.39;99698.44;5074021;28;20101;-61
2021/11/01 04:16:38;;;;;;;2.80;1.05;;;;;;;20.04;48.33;99694.78;5073912;28;20047;-61
2021/11/01 04:21:45;;;;;;;5.05;1.15;;;;;;;20.00;48.46;99690.84;5074356;28;20037;-62
2021/11/01 04:24:14;;;;;;;2.85;1.00;;;;;;;20.01;48.29;99683.72;5074742;28;20402;-60
2021/11/01 04:26:39;;;;;;;3.47;1.00;;;;;;;20.00;48.42;99693.47;5073781;28;20100;-60
2021/11/01 04:29:14;;;;;;;3.25;1.00;;;;;;;19.98;48.64;99699.91;5073322;28;20471;-60
2021/11/01 04:31:50;;;;;;;4.78;1.10;;;;;;;19.98;48.32;99689.34;5072755;28;20024;-60
2021/11/01 04:34:34;;;;;;;4.45;1.10;;;;;;;19.97;48.31;99690.34;5073429;28;20128;-60
2021/11/01 04:36:59;;;;;;;5.07;1.20;;;;;;;19.97;48.32;99695.63;5073205;28;20036;-61
2021/11/01 04:39:35;;;;;;;2.47;1.00;;;;;;;19.94;48.42;99692.31;5072508;28;20051;-60
2021/11/01 04:52:53;;;;;;;3.53;0.90;;;;;;;19.94;48.17;99683.56;5072236;28;20040;-62
2021/11/01 04:53:09;;;;;;;3.27;1.00;;;;;;;19.93;48.25;99681.91;5071901;28;20097;-61
2021/11/01 04:55:40;;;;;;;3.22;1.05;;;;;;;19.92;48.15;99669.69;5073243;28;20277;-61
2021/11/01 04:58:06;;;;;;;3.53;1.23;;;;;;;19.92;48.30;99672.31;5072579;28;20449;-62
2021/11/01 05:00:32;;;;;;;3.33;0.93;;;;;;;19.91;48.17;99678.59;5072149;28;20063;-61
2021/11/01 05:03:04;;;;;;;2.88;0.90;;;;;;;19.90;48.25;99679.56;5072762;28;20036;-61
2021/11/01 05:05:30;;;;;;;2.53;0.90;;;;;;;19.90;48.08;99682.22;5073097;28;20433;-61
2021/11/01 05:07:58;;;;;;;3.03;0.90;;;;;;;19.89;48.06;99681.41;5072269;28;20107;-61
2021/11/01 05:10:28;;;;;;;3.78;0.95;;;;;;;19.89;48.11;99686.69;5072805;28;20048;-61
2021/11/01 05:12:54;;;;;;;3.00;1.00;;;;;;;19.87;47.92;99686.03;5072700;28;20379;-61
2021/11/01 05:18:17;;;;;;;3.63;0.98;;;;;;;19.87;48.22;99677.28;5072463;28;20036;-63
2021/11/01 05:20:55;;;;;;;3.58;0.90;;;;;;;19.86;47.86;99679.09;5072709;28;20043;-61
2021/11/01 05:25:51;;;;;;;3.17;0.90;;;;;;;19.87;48.10;99678.09;5072434;28;20043;-61
2021/11/01 05:28:39;;;;;;;4.82;1.08;;;;;;;19.86;48.08;99671.16;5071502;28;20441;-61
2021/11/01 05:31:09;;;;;;;3.22;1.00;;;;;;;19.85;48.02;99680.09;5071965;28;20032;-61
2021/11/01 05:34:00;;;;;;;3.70;1.00;;;;;;;19.84;48.01;99675.78;5072476;28;20024;-61
2021/11/01 05:36:26;;;;;;;3.03;0.95;;;;;;;19.83;48.09;99666.19;5071909;28;20032;-60
2021/11/01 05:38:52;;;;;;;3.35;0.95;;;;;;;19.83;48.04;99668.03;5072508;28;20086;-61
2021/11/01 05:41:18;;;;;;;3.20;1.00;;;;;;;19.83;47.88;99675.94;5071834;28;20097;-61
2021/11/01 05:43:44;;;;;;;4.85;1.05;;;;;;;19.83;48.12;99681.25;5071496;28;20414;-61
2021/11/01 05:46:09;;;;;;;4.50;1.10;;;;;;;19.82;47.78;99684.84;5071781;28;20020;-61
2021/11/01 05:48:36;;;;;;;3.88;1.13;;;;;;;19.82;47.86;99698.94;5072011;28;20052;-61
2021/11/01 05:51:01;;;;;;;3.67;0.98;;;;;;;19.80;47.90;99698.25;5071360;28;20025;-61
2021/11/01 05:53:34;;;;;;;2.58;0.98;;;;;;;19.81;47.93;99705.19;5072074;28;20036;-61
2021/11/01 06:04:00;;;;;;;4.00;1.00;;;;;;;19.78;47.63;99716.09;5071600;28;20270;-61
2021/11/01 06:06:40;;;;;;;3.15;1.02;;;;;;;19.78;48.04;99731.94;5072123;28;20432;-61
2021/11/01 06:09:19;;;;;;;3.95;0.82;;;;;;;19.78;47.69;99728.50;5071852;28;20033;-62
2021/11/01 06:14:21;;;;;;;4.85;1.10;;;;;;;19.73;47.94;99732.41;5072182;28;20032;-61
2021/11/01 06:16:47;;;;;;;3.78;1.20;;;;;;;19.74;47.65;99744.66;5072172;28;20434;-63
2021/11/01 06:19:12;;;;;;;2.67;1.02;;;;;;;19.78;47.92;99739.06;5070822;28;20108;-62
2021/11/01 06:21:37;;;;;;;3.47;1.00;;;;;;;19.84;47.91;99747.16;5071860;28;20029;-61
2021/11/01 06:24:14;;;;;;;3.63;0.90;;;;;;;19.93;48.07;99732.13;5071480;28;20076;-62
2021/11/01 06:26:39;;;;;;;3.88;1.10;;;;;;;20.07;48.37;99743.91;5071835;28;20372;-61
2021/11/01 06:29:08;;;;;;;3.23;1.20;;;;;;;20.16;48.69;99742.91;5071589;28;20024;-61
2021/11/01 06:31:39;;;;;;;2.95;0.90;;;;;;;20.23;48.62;99743.88;5071101;28;20273;-62
2021/11/01 06:34:20;;;;;;;3.13;0.90;;;;;;;20.30;48.91;99746.72;5071512;28;20238;-61
2021/11/01 06:45:15;;;;;;;2.40;0.70;;;;;;;20.62;47.91;99758.28;5072792;28;19942;-61
2021/11/01 06:50:48;;;;;;;2.83;0.80;;;;;;;20.74;47.93;99758.78;5071624;28;20106;-61
2021/11/01 06:55:52;;;;;;;2.90;0.70;;;;;;;20.83;47.64;99763.09;5071835;28;20041;-60
2021/11/01 06:58:36;;;;;;;2.55;0.80;;;;;;;20.88;47.53;99767.88;5071335;28;20368;-61
2021/11/01 07:22:58;;;;;;;3.27;1.10;;;;;;;21.00;46.95;99799.13;5074373;28;20495;-63
2021/11/01 07:25:54;;;;;;;3.28;0.85;;;;;;;20.98;47.70;99790.53;5074367;28;20294;-64
2021/11/01 08:42:26;;;;;;;3.55;0.95;;;;;;;21.33;46.81;99825.56;5058355;28;20036;-64
2021/11/01 08:45:15;;;;;;;3.38;0.98;;;;;;;21.40;46.77;99831.00;5072551;28;20120;-62
2021/11/01 09:20:21;;;;;;;2.92;0.93;;;;;;;21.85;45.17;99813.59;5072844;28;20094;-63
2021/11/01 09:26:00;;;;;;;3.55;1.13;;;;;;;21.93;44.17;99802.94;5051450;28;20048;-67
2021/11/01 09:28:37;;;;;;;4.22;1.00;;;;;;;21.93;44.53;99813.53;5071606;28;20056;-67
2021/11/01 09:36:46;;;;;;;3.85;0.90;;;;;;;22.02;44.30;99819.63;5072987;28;20035;-64
2021/11/01 09:41:57;;;;;;;3.53;1.08;;;;;;;22.04;44.48;99817.63;5072013;28;20149;-63
2021/11/01 09:44:25;;;;;;;3.03;1.00;;;;;;;22.07;44.34;99822.59;5073754;28;20108;-65
2021/11/01 09:46:56;;;;;;;4.45;1.13;;;;;;;22.10;44.15;99840.00;5073987;28;20365;-65
2021/11/01 09:49:21;;;;;;;6.38;1.10;;;;;;;22.12;43.94;99837.16;5073614;28;20032;-65
2021/11/01 09:51:50;;;;;;;4.47;1.00;;;;;;;22.13;44.16;99833.50;5074468;28;20468;-64
2021/11/01 09:54:24;;;;;;;4.90;1.15;;;;;;;22.15;44.09;99834.97;5073823;28;20044;-62
2021/11/01 09:57:02;;;;;;;4.03;1.13;;;;;;;22.17;44.13;99843.59;5075882;28;20040;-63
2021/11/01 09:59:36;;;;;;;3.88;0.90;;;;;;;22.18;43.59;99839.94;5075796;28;20040;-63
2021/11/01 10:02:04;;;;;;;4.25;0.90;;;;;;;22.21;43.76;99841.44;5075224;28;20016;-63
2021/11/01 10:04:31;;;;;;;3.90;1.10;;;;;;;22.18;43.42;99834.63;5072902;28;20036;-70
2021/11/01 10:07:19;;;;;;;5.75;1.33;;;;;;;22.17;43.33;99830.31;5072848;28;20028;-66
2021/11/01 10:10:11;;;;;;;5.05;1.48;;;;;;;22.16;43.83;99830.50;5073643;28;20032;-64
2021/11/01 10:12:47;;;;;;;6.13;1.23;;;;;;;22.15;43.75;99826.19;5073157;28;20081;-65
2021/11/01 10:18:11;;;;;;;3.58;1.10;;;;;;;22.08;43.92;99826.91;5071530;28;20417;-63
2021/11/01 10:20:50;;;;;;;4.00;1.05;;;;;;;22.08;44.04;99834.84;5072384;28;20101;-64
2021/11/01 10:23:22;;;;;;;6.78;1.20;;;;;;;22.05;44.19;99832.56;5071185;28;20063;-68
2021/11/01 10:25:47;;;;;;;3.30;1.00;;;;;;;22.00;44.48;99834.91;5072356;28;20032;-63
2021/11/01 10:28:27;;;;;;;3.58;1.08;;;;;;;22.00;44.34;99837.56;5073765;28;20166;-62
2021/11/01 10:31:07;;;;;;;5.63;1.10;;;;;;;22.00;44.46;99829.59;5072395;28;20016;-64
2021/11/01 10:33:34;;;;;;;3.40;1.15;;;;;;;22.01;44.28;99828.59;5074783;28;20027;-67
2021/11/01 10:36:01;;;;;;;3.03;0.80;;;;;;;22.00;44.49;99828.75;5071855;28;20353;-64
2021/11/01 10:38:31;;;;;;;5.75;1.27;;;;;;;22.01;44.56;99823.28;5071299;28;20040;-66
2021/11/01 10:41:10;;;;;;;5.88;1.27;;;;;;;21.99;44.43;99825.28;5072010;28;20058;-68
2021/11/01 11:14:09;;;;;;;3.70;1.20;;;;;;;21.79;45.00;99824.06;5074650;28;20033;-62
2021/11/01 11:22:12;;;;;;;5.53;1.05;;;;;;;21.94;44.97;99819.69;5074855;28;20056;-64
2021/11/01 11:33:50;;;;;;;4.57;1.00;;;;;;;22.04;44.51;99828.25;5075024;28;20068;-67
2021/11/01 11:48:38;;;;;;;5.60;1.08;;;;;;;21.87;44.67;99822.22;5074839;28;20031;-65
2021/11/01 11:50:38;;;;;;;2.95;0.82;;;;;;;21.86;44.30;99814.44;5074064;28;20566;-65
2021/11/01 11:53:19;;;;;;;3.38;0.90;;;;;;;21.90;44.59;99834.28;5073293;28;20068;-65
2021/11/01 11:56:00;;;;;;;4.57;1.00;;;;;;;21.93;44.35;99820.69;5074010;28;20121;-66
2021/11/01 11:58:34;;;;;;;2.35;0.85;;;;;;;21.98;44.22;99823.63;5074390;28;20115;-65
2021/11/01 12:01:40;;;;;;;4.25;0.95;;;;;;;22.01;44.35;99823.28;5073990;28;20047;-64
2021/11/01 12:04:32;;;;;;;2.80;1.00;;;;;;;22.03;44.46;99823.09;5074393;28;20040;-62
2021/11/01 12:07:04;;;;;;;2.22;0.80;;;;;;;22.04;44.25;99828.25;5074165;28;20047;-63
2021/11/01 12:09:47;;;;;;;3.30;0.80;;;;;;;22.05;44.27;99821.13;5074313;28;20043;-63
2021/11/01 12:17:17;;;;;;;4.20;1.20;;;;;;;22.04;44.24;99817.63;5073111;28;20028;-63
2021/11/01 12:19:42;;;;;;;5.15;0.90;;;;;;;22.02;44.14;99809.03;5073927;28;20059;-63
2021/11/01 12:22:12;;;;;;;3.63;1.00;;;;;;;21.98;44.18;99809.53;5073345;28;20032;-64
2021/11/01 12:24:44;;;;;;;3.92;0.80;;;;;;;21.92;44.20;99806.59;5071756;28;20282;-64
2021/11/01 12:27:09;;;;;;;3.55;0.90;;;;;;;21.88;44.19;99801.81;5073415;28;20484;-62
2021/11/01 12:29:37;;;;;;;4.18;1.00;;;;;;;21.89;44.56;99800.81;5074131;28;20047;-61
2021/11/01 12:32:09;;;;;;;3.08;0.80;;;;;;;21.90;44.16;99799.81;5074735;28;20376;-62
2021/11/01 12:34:42;;;;;;;3.67;1.02;;;;;;;21.93;44.18;99804.75;5076811;28;20024;-61
2021/11/01 12:37:16;;;;;;;4.22;0.90;;;;;;;21.96;44.12;99804.41;5073684;28;20025;-63
2021/11/01 12:39:55;;;;;;;2.70;0.80;;;;;;;22.01;44.02;99803.91;5074945;28;20052;-64
2021/11/01 12:42:42;;;;;;;3.95;0.90;;;;;;;22.02;43.79;99798.41;5074480;28;20261;-62
2021/11/01 12:45:44;;;;;;;2.53;0.73;;;;;;;22.00;43.97;99795.13;5072509;28;20028;-61
2021/11/01 12:59:16;;;;;;;4.25;0.85;;;;;;;21.93;44.28;99778.25;5071960;28;20051;-63
2021/11/01 13:01:48;;;;;;;4.07;0.90;;;;;;;22.01;44.37;99775.53;5073196;28;20021;-63
2021/11/01 13:04:33;;;;;;;2.42;0.70;;;;;;;22.08;44.12;99780.97;5073108;28;20056;-63
2021/11/01 13:09:46;;;;;;;4.03;1.03;;;;;;;22.13;44.02;99775.97;5073291;28;20059;-64
2021/11/01 13:12:34;;;;;;;2.65;0.90;;;;;;;22.13;44.16;99778.63;5072664;28;20566;-63
2021/11/01 13:17:51;;;;;;;4.38;0.80;;;;;;;22.17;44.04;99768.47;5074480;28;20040;-63
2021/11/01 13:18:21;;;;;;;2.05;0.70;;;;;;;22.23;43.81;99775.72;5073734;28;20041;-62
2021/11/01 13:20:57;;;;;;;2.70;0.80;;;;;;;22.27;43.79;99777.84;5071885;28;20035;-64
2021/11/01 13:23:31;;;;;;;2.95;0.80;;;;;;;22.33;43.57;99778.97;5072622;28;20030;-66
2021/11/01 13:37:37;;;;;;;3.47;1.02;;;;;;;22.36;43.57;99773.31;5072410;28;20035;-64
2021/11/01 13:40:18;;;;;;;5.03;1.08;;;;;;;22.38;43.44;99781.09;5072249;28;20024;-64
2021/11/01 13:42:57;;;;;;;4.80;1.30;;;;;;;22.38;43.44;99789.06;5072301;28;20103;-63
2021/11/01 13:45:23;;;;;;;3.47;0.80;;;;;;;22.36;43.59;99783.94;5072358;28;20032;-63
2021/11/01 13:48:04;;;;;;;3.92;1.10;;;;;;;22.32;43.47;99782.66;5071734;28;20025;-61
2021/11/01 13:50:38;;;;;;;2.65;0.77;;;;;;;22.31;43.37;99786.31;5073409;28;20033;-62
2021/11/01 13:53:10;;;;;;;2.58;0.82;;;;;;;22.28;43.59;99784.78;5071833;28;20036;-61
2021/11/01 13:56:01;;;;;;;3.25;0.90;;;;;;;22.27;43.35;99782.31;5072076;28;20020;-61
2021/11/01 14:11:59;;;;;;;2.65;0.80;;;;;;;22.15;43.64;99773.94;5073845;28;20051;-63
2021/11/01 14:14:35;;;;;;;3.13;0.82;;;;;;;22.17;43.58;99776.44;5073330;28;20089;-63
2021/11/01 14:20:08;;;;;;;3.25;0.70;;;;;;;22.14;43.64;99777.59;5076890;28;20115;-62
2021/11/01 15:12:25;;;;;;;2.92;1.02;;;;;;;21.76;44.58;99756.28;5074531;28;20154;-63
2021/11/01 15:20:22;;;;;;;2.50;0.73;;;;;;;21.59;45.03;99763.53;5062064;28;20056;-62
2021/11/01 15:33:50;;;;;;;3.85;0.90;;;;;;;21.49;45.45;99762.88;5073600;28;20127;-64
2021/11/01 16:19:54;;;;;;;4.82;1.40;;;;;;;21.54;47.89;99840.91;5074213;28;20048;-62
2021/11/01 16:22:20;;;;;;;4.90;1.38;;;;;;;21.58;47.68;99841.38;5072906;28;20098;-63
2021/11/01 16:24:48;;;;;;;4.78;1.33;;;;;;;21.55;47.49;99836.44;5073639;28;20051;-62
2021/11/01 16:27:16;;;;;;;6.72;1.35;;;;;;;21.49;47.62;99824.69;5073399;28;20029;-63
2021/11/01 16:30:05;;;;;;;5.88;1.98;;;;;;;21.44;47.49;99826.97;5073037;28;20150;-63
2021/11/01 16:32:37;;;;;;;5.25;1.40;;;;;;;21.40;47.72;99838.13;5073452;28;20499;-62
2021/11/01 16:35:05;;;;;;;3.90;1.10;;;;;;;21.35;47.86;99828.03;5073323;28;20033;-63
2021/11/01 16:40:03;;;;;;;4.22;1.20;;;;;;;21.35;47.78;99817.44;5072912;28;20024;-60
2021/11/01 16:42:35;;;;;;;4.80;1.55;;;;;;;21.35;47.63;99812.13;5073292;28;20115;-59
2021/11/01 16:45:10;;;;;;;3.05;1.10;;;;;;;21.33;47.89;99822.06;5072093;28;20032;-62
2021/11/01 16:47:36;;;;;;;4.82;1.00;;;;;;;21.32;47.51;99817.78;5073458;28;20107;-62
2021/11/01 16:50:05;;;;;;;3.40;1.30;;;;;;;21.28;47.75;99819.91;5072568;28;20032;-62
2021/11/01 16:52:31;;;;;;;4.15;1.58;;;;;;;21.27;48.23;99817.44;5073350;28;20386;-64
2021/11/01 16:54:58;;;;;;;3.08;1.02;;;;;;;21.27;48.90;99814.78;5072712;28;20174;-62
2021/11/01 16:57:29;;;;;;;3.97;1.20;;;;;;;21.26;49.11;99811.31;5072278;28;20474;-64
2021/11/01 17:02:58;;;;;;;3.70;1.10;;;;;;;21.27;49.36;99823.59;5072996;28;20051;-63
2021/11/01 17:21:39;;;;;;;2.80;1.00;;;;;;;21.51;48.96;99873.06;5072420;28;20047;-61
2021/11/01 17:24:29;;;;;;;3.45;0.88;;;;;;;21.52;48.91;99868.59;5072139;28;20020;-61
2021/11/01 17:35:05;;;;;;;3.38;1.17;;;;;;;21.65;48.49;99858.28;5072612;28;20039;-61
2021/11/01 17:38:06;;;;;;;4.15;0.82;;;;;;;21.65;48.54;99846.81;5072570;28;20029;-60
2021/11/01 18:24:42;;;;;;;3.00;0.88;;;;;;;21.65;48.86;99847.69;5072289;28;20035;-60
2021/11/01 18:38:51;;;;;;;;;;;;;;;21.81;48.83;99891.00;5072587;28;20032;-63
2021/11/01 18:41:28;;;;;;;1.73;0.60;;;;;;;21.79;49.27;99890.38;5071663;28;19916;-63
2021/11/01 18:52:10;;;;;;;4.45;0.93;;;;;;;21.68;49.24;99886.25;5071884;28;20067;-62
2021/11/01 18:54:44;;;;;;;1.67;0.65;;;;;;;21.67;49.40;99885.44;5071457;28;20037;-60
2021/11/01 18:57:12;;;;;;;3.05;0.90;;;;;;;21.67;49.26;99890.75;5070724;28;20052;-60
2021/11/01 18:59:39;;;;;;;2.20;0.60;;;;;;;21.68;49.41;99897.72;5071738;28;20077;-60
2021/11/01 19:02:34;;;;;;;1.90;0.63;;;;;;;21.66;49.39;99893.56;5071224;28;20033;-60
2021/11/01 19:05:06;;;;;;;3.03;0.77;;;;;;;21.64;49.57;99891.09;5073924;28;20028;-65
2021/11/01 19:10:43;;;;;;;2.40;0.80;;;;;;;21.67;49.60;99893.41;5074978;28;20056;-60
2021/11/01 19:16:45;;;;;;;1.52;0.50;;;;;;;21.70;49.34;99893.06;5075100;28;20078;-60
2021/11/01 20:03:13;;;;;;;1.80;0.52;;;;;;;22.05;48.26;99900.72;5073973;28;20075;-60
2021/11/01 20:05:45;;;;;;;1.58;0.60;;;;;;;22.01;48.27;99900.22;5074193;28;20035;-62
2021/11/01 21:24:28;;;;;;;1.80;0.60;;;;;;;22.03;47.92;99898.25;5073817;28;20063;-60
2021/11/01 21:26:30;;;;;;;;;;;;;;;22.04;47.70;99896.41;5071775;28;20490;-59
2021/11/01 21:28:55;;;;;;;2.90;0.80;;;;;;;22.04;47.63;99897.22;5072512;28;19964;-60
2021/11/01 21:31:21;;;;;;;2.53;0.80;;;;;;;22.00;47.78;99895.94;5072462;28;20040;-60
2021/11/01 21:33:51;;;;;;;2.47;0.90;;;;;;;22.00;47.89;99890.63;5072377;28;20273;-60
2021/11/01 21:36:24;;;;;;;1.52;0.70;;;;;;;21.99;47.92;99888.97;5072296;28;20032;-59
2021/11/01 21:38:55;;;;;;;1.35;0.60;;;;;;;21.99;47.84;99877.53;5071632;28;20093;-60
2021/11/01 21:41:27;;;;;;;2.03;0.80;;;;;;;21.99;48.20;99880.19;5071662;28;20484;-59
2021/11/01 21:43:55;;;;;;;3.92;1.00;;;;;;;22.00;48.04;99881.81;5072629;28;20178;-59
2021/11/01 21:46:21;;;;;;;2.10;0.70;;;;;;;22.00;48.13;99880.00;5071502;28;20150;-60
2021/11/01 21:48:50;;;;;;;1.80;0.70;;;;;;;22.02;47.79;99880.66;5072532;28;20107;-61
2021/11/01 21:51:22;;;;;;;2.05;0.77;;;;;;;22.02;47.85;99880.66;5072087;28;20293;-60
2021/11/01 21:54:00;;;;;;;2.10;0.90;;;;;;;22.02;47.63;99878.00;5071661;28;20044;-60
2021/11/01 21:56:27;;;;;;;2.05;0.82;;;;;;;22.00;47.59;99873.84;5072274;28;20027;-61
2021/11/01 21:59:09;;;;;;;2.28;0.80;;;;;;;21.94;47.24;99870.09;5073629;28;20107;-61
2021/11/01 22:18:08;;;;;;;2.15;0.88;;;;;;;22.34;45.55;99864.75;5072759;28;20032;-61
2021/11/01 22:20:36;;;;;;;2.33;1.00;;;;;;;22.36;45.33;99858.25;5072750;28;20032;-61
2021/11/01 22:23:33;;;;;;;2.90;0.95;;;;;;;22.40;45.34;99856.91;5072233;28;20060;-62
2021/11/01 22:26:01;;;;;;;2.17;0.90;;;;;;;22.43;45.18;99863.69;5072738;28;20115;-59
2021/11/01 22:39:39;;;;;;;3.13;0.90;;;;;;;22.38;45.06;99852.78;5076125;28;20503;-60
2021/11/01 22:42:26;;;;;;;2.28;0.90;;;;;;;22.35;45.15;99855.78;5074731;28;20028;-61